Terminal Aerodrome Forecast
Issued by NWS Charleston, WV

Home | Current Version | Previous Version | Text Only | Print | Product List | Glossary On
Versions: 1 2 3 4 5 6 7 8 9 10 11 12 13 14 15 16 17 18 19 20 21 22 23 24 25
000
FTUS41 KRLX 231400 AAB
TAFCRW
TAF AMD
KCRW 231429Z 2314/2412 00000KT 4SM BR OVC006
      TEMPO 2314/2315 2SM BR OVC003
     FM231500 VRB03KT P6SM BKN013
     FM231800 VRB03KT P6SM BKN025
     FM240300 12003KT 6SM BR BKN035
     FM240800 12003KT 2SM BR BKN002
     FM241000 VRB03KT 1/2SM FG BKN002=

USA.gov is the U.S. government's official web portal to all federal, state and local government web resources and services.